KCOS/COS METAR and TAF weather

Enter ICAO airport designator
Station Type Date Time Source
KCOS METAR 2019/10/18 10:54 UTC NOAA

KCOS 181054Z 02008KT 10SM FEW180 10/M08 A2967 RMK AO2 SLP977 T01001078


Station Type Date Time Source
KCOS Decoded METAR 2019/10/18 10:54 UTC NOAA

COLORADO SPRINGS MUNI, CO, United States (KCOS) 38-49N 104-43W 1856M
Oct 18, 2019 - 06:54 AM EDT / 2019.10.18 1054 UTC
Wind: from the NNE (020 degrees) at 9 MPH (8 KT):0
Visibility: 10 mile(s):0
Sky conditions: mostly clear
Temperature: 50.0 F (10.0 C)
Dew Point: 18.0 F (-7.8 C)
Relative Humidity: 27%
Pressure (altimeter): 29.67 in. Hg (1004 hPa)
ob: KCOS 181054Z 02008KT 10SM FEW180 10/M08 A2967 RMK AO2 SLP977 T01001078
cycle: 11

Station Type Date Time Source
KCOS TAF 2019/10/18 06:22 UTC NOAA

TAF KCOS 180520Z 1806/1906 35009KT P6SM FEW200
FM181700 30015KT P6SM FEW150 SCT200
FM182000 35018G28KT P6SM VCSH SCT120 BKN200
FM190200 02006KT P6SM SKC

Example: see airport list